Terminal Aerodrome Forecast
Issued by NWS Wilmington, OH

Current Version | Previous Version | Text Only | Print | Product List | Glossary Off
Versions: 1 2 3 4 5 6 7 8 9 10 11 12 13 14 15 16 17 18 19 20 21 22 23 24 25 26

089
FTUS41 KILN 190857 AAA
TAFCVG
TAF AMD
KCVG 190857Z 1909/2012 18003KT P6SM VCSH FEW008 BKN130 OVC140
     FM191100 18008KT P6SM VCSH BKN025
     FM191400 20011KT P6SM VCSH SCT015 BKN250
     FM191800 22011G19KT P6SM -SHRA VCTS BKN025CB
     FM192200 22011KT P6SM VCSH BKN050
     FM200100 23005KT P6SM BKN035=

USA.gov is the U.S. government's official web portal to all federal, state and local government web resources and services.